sensor_id;sensor_type;location;lat;lon;timestamp;P1;durP1;ratioP1;P2;durP2;ratioP2
47367;SDS011;34646;47.964;7.982;2022-07-29T00:03:51;2.37;;;1.90;;
47367;SDS011;34646;47.964;7.982;2022-07-29T00:09:55;3.38;;;2.00;;
47367;SDS011;34646;47.964;7.982;2022-07-29T00:15:55;4.95;;;2.10;;
47367;SDS011;34646;47.964;7.982;2022-07-29T00:21:56;2.47;;;1.80;;
47367;SDS011;34646;47.964;7.982;2022-07-29T00:27:57;2.90;;;2.27;;
47367;SDS011;34646;47.964;7.982;2022-07-29T00:33:57;2.80;;;2.00;;
47367;SDS011;34646;47.964;7.982;2022-07-29T00:39:58;3.83;;;1.93;;
47367;SDS011;34646;47.964;7.982;2022-07-29T00:45:58;4.97;;;1.97;;
47367;SDS011;34646;47.964;7.982;2022-07-29T00:52:00;3.70;;;2.13;;
47367;SDS011;34646;47.964;7.982;2022-07-29T00:58:02;2.83;;;2.20;;
47367;SDS011;34646;47.964;7.982;2022-07-29T01:04:03;2.40;;;1.80;;
47367;SDS011;34646;47.964;7.982;2022-07-29T01:10:06;3.33;;;2.10;;
47367;SDS011;34646;47.964;7.982;2022-07-29T01:16:10;3.97;;;2.33;;
47367;SDS011;34646;47.964;7.982;2022-07-29T01:22:22;3.35;;;2.17;;
47367;SDS011;34646;47.964;7.982;2022-07-29T01:28:44;4.90;;;2.20;;
47367;SDS011;34646;47.964;7.982;2022-07-29T01:35:19;3.92;;;2.30;;
47367;SDS011;34646;47.964;7.982;2022-07-29T01:41:25;3.30;;;2.10;;
47367;SDS011;34646;47.964;7.982;2022-07-29T01:47:31;4.35;;;2.22;;
47367;SDS011;34646;47.964;7.982;2022-07-29T02:00:05;3.33;;;1.75;;
47367;SDS011;34646;47.964;7.982;2022-07-29T02:06:14;3.25;;;1.92;;
47367;SDS011;34646;47.964;7.982;2022-07-29T02:12:19;3.60;;;1.90;;
47367;SDS011;34646;47.964;7.982;2022-07-29T02:18:20;3.35;;;2.05;;
47367;SDS011;34646;47.964;7.982;2022-07-29T02:24:24;3.85;;;2.28;;
47367;SDS011;34646;47.964;7.982;2022-07-29T02:30:26;4.13;;;1.83;;
47367;SDS011;34646;47.964;7.982;2022-07-29T02:36:28;4.22;;;1.95;;
47367;SDS011;34646;47.964;7.982;2022-07-29T02:42:30;3.90;;;2.05;;
47367;SDS011;34646;47.964;7.982;2022-07-29T02:48:37;3.50;;;2.13;;
47367;SDS011;34646;47.964;7.982;2022-07-29T03:00:44;4.00;;;1.70;;
47367;SDS011;34646;47.964;7.982;2022-07-29T03:06:47;2.88;;;1.83;;
47367;SDS011;34646;47.964;7.982;2022-07-29T03:12:49;3.35;;;2.10;;
47367;SDS011;34646;47.964;7.982;2022-07-29T03:18:50;2.88;;;1.83;;
47367;SDS011;34646;47.964;7.982;2022-07-29T03:24:52;2.83;;;2.03;;
47367;SDS011;34646;47.964;7.982;2022-07-29T03:30:53;3.03;;;1.80;;
47367;SDS011;34646;47.964;7.982;2022-07-29T03:36:54;4.28;;;1.95;;
47367;SDS011;34646;47.964;7.982;2022-07-29T03:42:54;2.63;;;1.80;;
47367;SDS011;34646;47.964;7.982;2022-07-29T03:48:58;2.67;;;2.00;;
47367;SDS011;34646;47.964;7.982;2022-07-29T03:55:01;2.33;;;1.90;;
47367;SDS011;34646;47.964;7.982;2022-07-29T04:01:03;2.75;;;1.70;;
47367;SDS011;34646;47.964;7.982;2022-07-29T04:07:04;4.38;;;1.90;;
47367;SDS011;34646;47.964;7.982;2022-07-29T04:13:05;4.72;;;1.65;;
47367;SDS011;34646;47.964;7.982;2022-07-29T04:19:05;3.70;;;2.10;;
47367;SDS011;34646;47.964;7.982;2022-07-29T04:25:06;3.67;;;1.90;;
47367;SDS011;34646;47.964;7.982;2022-07-29T04:31:07;4.15;;;2.25;;
47367;SDS011;34646;47.964;7.982;2022-07-29T04:37:08;4.28;;;1.95;;
47367;SDS011;34646;47.964;7.982;2022-07-29T04:43:09;2.57;;;1.83;;
47367;SDS011;34646;47.964;7.982;2022-07-29T04:49:09;2.67;;;1.80;;
47367;SDS011;34646;47.964;7.982;2022-07-29T04:55:10;2.73;;;1.90;;
47367;SDS011;34646;47.964;7.982;2022-07-29T05:01:11;2.38;;;1.63;;
47367;SDS011;34646;47.964;7.982;2022-07-29T05:07:12;2.40;;;1.40;;
47367;SDS011;34646;47.964;7.982;2022-07-29T05:13:14;2.87;;;1.80;;
47367;SDS011;34646;47.964;7.982;2022-07-29T05:19:14;3.55;;;2.03;;
47367;SDS011;34646;47.964;7.982;2022-07-29T05:25:15;4.30;;;2.33;;
47367;SDS011;34646;47.964;7.982;2022-07-29T05:31:16;3.87;;;1.83;;
47367;SDS011;34646;47.964;7.982;2022-07-29T05:37:17;3.43;;;2.10;;
47367;SDS011;34646;47.964;7.982;2022-07-29T05:43:20;4.25;;;1.80;;
47367;SDS011;34646;47.964;7.982;2022-07-29T05:49:21;6.73;;;2.10;;
47367;SDS011;34646;47.964;7.982;2022-07-29T05:55:22;4.10;;;2.60;;
47367;SDS011;34646;47.964;7.982;2022-07-29T06:01:22;5.23;;;2.27;;
47367;SDS011;34646;47.964;7.982;2022-07-29T06:07:23;4.47;;;2.37;;
47367;SDS011;34646;47.964;7.982;2022-07-29T06:13:24;6.53;;;2.73;;
47367;SDS011;34646;47.964;7.982;2022-07-29T06:19:24;7.17;;;2.20;;
47367;SDS011;34646;47.964;7.982;2022-07-29T06:25:26;3.78;;;2.38;;
47367;SDS011;34646;47.964;7.982;2022-07-29T06:31:29;7.97;;;3.33;;
47367;SDS011;34646;47.964;7.982;2022-07-29T06:37:30;3.60;;;2.50;;
47367;SDS011;34646;47.964;7.982;2022-07-29T06:43:32;6.70;;;2.30;;
47367;SDS011;34646;47.964;7.982;2022-07-29T06:49:35;4.50;;;2.30;;
47367;SDS011;34646;47.964;7.982;2022-07-29T06:55:36;3.90;;;2.00;;
47367;SDS011;34646;47.964;7.982;2022-07-29T07:01:37;5.97;;;2.40;;
47367;SDS011;34646;47.964;7.982;2022-07-29T07:07:40;3.60;;;2.60;;
47367;SDS011;34646;47.964;7.982;2022-07-29T07:13:41;4.23;;;3.03;;
47367;SDS011;34646;47.964;7.982;2022-07-29T07:19:42;5.33;;;2.27;;
47367;SDS011;34646;47.964;7.982;2022-07-29T07:25:42;3.37;;;2.80;;
47367;SDS011;34646;47.964;7.982;2022-07-29T07:31:43;5.73;;;2.50;;
47367;SDS011;34646;47.964;7.982;2022-07-29T07:37:44;4.13;;;2.40;;
47367;SDS011;34646;47.964;7.982;2022-07-29T07:43:44;3.47;;;2.17;;
47367;SDS011;34646;47.964;7.982;2022-07-29T07:49:49;5.72;;;2.30;;
47367;SDS011;34646;47.964;7.982;2022-07-29T07:55:50;3.47;;;2.13;;
47367;SDS011;34646;47.964;7.982;2022-07-29T08:01:51;4.93;;;2.00;;
47367;SDS011;34646;47.964;7.982;2022-07-29T08:07:51;4.73;;;2.30;;
47367;SDS011;34646;47.964;7.982;2022-07-29T08:13:52;4.63;;;2.50;;
47367;SDS011;34646;47.964;7.982;2022-07-29T08:19:53;3.47;;;2.50;;
47367;SDS011;34646;47.964;7.982;2022-07-29T08:25:53;3.77;;;2.13;;
47367;SDS011;34646;47.964;7.982;2022-07-29T08:31:54;3.23;;;2.17;;
47367;SDS011;34646;47.964;7.982;2022-07-29T08:37:55;4.43;;;2.25;;
47367;SDS011;34646;47.964;7.982;2022-07-29T08:43:56;4.38;;;2.55;;
47367;SDS011;34646;47.964;7.982;2022-07-29T08:49:57;4.57;;;2.20;;
47367;SDS011;34646;47.964;7.982;2022-07-29T08:55:58;3.70;;;2.20;;
47367;SDS011;34646;47.964;7.982;2022-07-29T09:01:59;3.65;;;2.17;;
47367;SDS011;34646;47.964;7.982;2022-07-29T09:08:00;3.38;;;2.20;;
47367;SDS011;34646;47.964;7.982;2022-07-29T09:14:02;6.43;;;2.22;;
47367;SDS011;34646;47.964;7.982;2022-07-29T09:20:08;7.50;;;2.60;;
47367;SDS011;34646;47.964;7.982;2022-07-29T09:26:10;5.45;;;2.38;;
47367;SDS011;34646;47.964;7.982;2022-07-29T09:32:11;6.65;;;2.20;;
47367;SDS011;34646;47.964;7.982;2022-07-29T09:38:12;6.18;;;2.05;;
47367;SDS011;34646;47.964;7.982;2022-07-29T09:44:13;5.88;;;2.03;;
47367;SDS011;34646;47.964;7.982;2022-07-29T09:50:15;6.80;;;1.90;;
47367;SDS011;34646;47.964;7.982;2022-07-29T09:56:16;9.38;;;2.58;;
47367;SDS011;34646;47.964;7.982;2022-07-29T10:02:16;4.77;;;1.80;;
47367;SDS011;34646;47.964;7.982;2022-07-29T10:08:25;13.18;;;2.60;;
47367;SDS011;34646;47.964;7.982;2022-07-29T10:14:26;7.25;;;2.13;;
47367;SDS011;34646;47.964;7.982;2022-07-29T10:20:27;6.53;;;2.30;;
47367;SDS011;34646;47.964;7.982;2022-07-29T10:26:29;9.10;;;3.20;;
47367;SDS011;34646;47.964;7.982;2022-07-29T10:45:54;26.30;;;3.03;;
47367;SDS011;34646;47.964;7.982;2022-07-29T10:52:01;8.00;;;2.53;;
47367;SDS011;34646;47.964;7.982;2022-07-29T10:58:25;12.80;;;2.38;;
47367;SDS011;34646;47.964;7.982;2022-07-29T11:10:45;11.07;;;2.28;;
47367;SDS011;34646;47.964;7.982;2022-07-29T11:17:05;11.57;;;2.30;;
47367;SDS011;34646;47.964;7.982;2022-07-29T11:29:24;8.30;;;2.60;;
47367;SDS011;34646;47.964;7.982;2022-07-29T11:35:25;11.80;;;2.33;;
47367;SDS011;34646;47.964;7.982;2022-07-29T11:41:29;7.67;;;2.63;;
47367;SDS011;34646;47.964;7.982;2022-07-29T11:47:41;16.38;;;2.33;;
47367;SDS011;34646;47.964;7.982;2022-07-29T11:53:46;5.07;;;1.95;;
47367;SDS011;34646;47.964;7.982;2022-07-29T11:59:48;10.82;;;2.25;;
47367;SDS011;34646;47.964;7.982;2022-07-29T12:05:48;14.10;;;2.10;;
47367;SDS011;34646;47.964;7.982;2022-07-29T12:11:55;12.90;;;2.17;;
47367;SDS011;34646;47.964;7.982;2022-07-29T12:17:56;6.53;;;1.80;;
47367;SDS011;34646;47.964;7.982;2022-07-29T12:23:57;20.00;;;3.13;;
47367;SDS011;34646;47.964;7.982;2022-07-29T12:29:59;14.00;;;2.30;;
47367;SDS011;34646;47.964;7.982;2022-07-29T12:36:01;2.90;;;1.98;;
47367;SDS011;34646;47.964;7.982;2022-07-29T12:42:21;5.88;;;1.92;;
47367;SDS011;34646;47.964;7.982;2022-07-29T12:48:38;6.00;;;1.77;;
47367;SDS011;34646;47.964;7.982;2022-07-29T12:54:46;7.10;;;2.10;;
47367;SDS011;34646;47.964;7.982;2022-07-29T13:00:47;10.15;;;2.00;;
47367;SDS011;34646;47.964;7.982;2022-07-29T13:19:10;7.13;;;1.70;;
47367;SDS011;34646;47.964;7.982;2022-07-29T13:25:11;5.60;;;1.83;;
47367;SDS011;34646;47.964;7.982;2022-07-29T13:31:12;8.80;;;2.00;;
47367;SDS011;34646;47.964;7.982;2022-07-29T13:37:13;6.47;;;1.65;;
47367;SDS011;34646;47.964;7.982;2022-07-29T13:49:15;12.33;;;2.93;;
47367;SDS011;34646;47.964;7.982;2022-07-29T13:55:16;9.93;;;1.80;;
47367;SDS011;34646;47.964;7.982;2022-07-29T14:01:16;12.63;;;2.20;;
47367;SDS011;34646;47.964;7.982;2022-07-29T14:07:17;5.40;;;2.10;;
47367;SDS011;34646;47.964;7.982;2022-07-29T14:13:17;3.17;;;1.80;;
47367;SDS011;34646;47.964;7.982;2022-07-29T14:19:18;5.70;;;1.77;;
47367;SDS011;34646;47.964;7.982;2022-07-29T14:25:19;5.23;;;1.80;;
47367;SDS011;34646;47.964;7.982;2022-07-29T14:31:19;5.60;;;2.07;;
47367;SDS011;34646;47.964;7.982;2022-07-29T14:37:20;5.17;;;2.20;;
47367;SDS011;34646;47.964;7.982;2022-07-29T14:43:21;7.37;;;2.30;;
47367;SDS011;34646;47.964;7.982;2022-07-29T14:49:21;5.33;;;2.10;;
47367;SDS011;34646;47.964;7.982;2022-07-29T14:55:22;11.57;;;2.30;;
47367;SDS011;34646;47.964;7.982;2022-07-29T15:01:23;5.87;;;1.70;;
47367;SDS011;34646;47.964;7.982;2022-07-29T15:07:24;4.78;;;1.67;;
47367;SDS011;34646;47.964;7.982;2022-07-29T15:13:25;11.57;;;1.70;;
47367;SDS011;34646;47.964;7.982;2022-07-29T15:19:26;7.35;;;2.00;;
47367;SDS011;34646;47.964;7.982;2022-07-29T15:25:26;9.40;;;2.03;;
47367;SDS011;34646;47.964;7.982;2022-07-29T15:31:27;7.33;;;1.57;;
47367;SDS011;34646;47.964;7.982;2022-07-29T15:37:28;4.80;;;1.83;;
47367;SDS011;34646;47.964;7.982;2022-07-29T15:43:29;8.30;;;2.40;;
47367;SDS011;34646;47.964;7.982;2022-07-29T15:49:30;8.33;;;2.60;;
47367;SDS011;34646;47.964;7.982;2022-07-29T15:55:31;9.90;;;2.60;;
47367;SDS011;34646;47.964;7.982;2022-07-29T16:01:32;4.10;;;2.03;;
47367;SDS011;34646;47.964;7.982;2022-07-29T16:07:32;9.90;;;2.70;;
47367;SDS011;34646;47.964;7.982;2022-07-29T16:13:33;6.82;;;2.08;;
47367;SDS011;34646;47.964;7.982;2022-07-29T16:19:34;5.27;;;2.13;;
47367;SDS011;34646;47.964;7.982;2022-07-29T16:25:35;11.27;;;1.90;;
47367;SDS011;34646;47.964;7.982;2022-07-29T16:31:37;7.45;;;1.90;;
47367;SDS011;34646;47.964;7.982;2022-07-29T16:37:37;11.00;;;2.90;;
47367;SDS011;34646;47.964;7.982;2022-07-29T16:43:38;7.22;;;1.70;;
47367;SDS011;34646;47.964;7.982;2022-07-29T16:49:39;6.32;;;1.90;;
47367;SDS011;34646;47.964;7.982;2022-07-29T16:55:40;3.42;;;2.05;;
47367;SDS011;34646;47.964;7.982;2022-07-29T17:01:41;3.87;;;1.63;;
47367;SDS011;34646;47.964;7.982;2022-07-29T17:07:41;5.82;;;1.70;;
47367;SDS011;34646;47.964;7.982;2022-07-29T17:13:42;5.10;;;1.27;;
47367;SDS011;34646;47.964;7.982;2022-07-29T17:19:43;2.75;;;1.65;;
47367;SDS011;34646;47.964;7.982;2022-07-29T17:25:44;7.10;;;1.63;;
47367;SDS011;34646;47.964;7.982;2022-07-29T17:31:44;5.80;;;1.30;;
47367;SDS011;34646;47.964;7.982;2022-07-29T17:37:45;4.77;;;1.17;;
47367;SDS011;34646;47.964;7.982;2022-07-29T17:43:46;5.07;;;1.40;;
47367;SDS011;34646;47.964;7.982;2022-07-29T17:49:47;3.15;;;1.50;;
47367;SDS011;34646;47.964;7.982;2022-07-29T17:55:48;3.13;;;1.53;;
47367;SDS011;34646;47.964;7.982;2022-07-29T18:01:48;3.90;;;1.37;;
47367;SDS011;34646;47.964;7.982;2022-07-29T18:07:49;4.72;;;1.10;;
47367;SDS011;34646;47.964;7.982;2022-07-29T18:13:50;5.63;;;1.30;;
47367;SDS011;34646;47.964;7.982;2022-07-29T18:19:51;4.78;;;1.10;;
47367;SDS011;34646;47.964;7.982;2022-07-29T18:25:51;4.85;;;1.40;;
47367;SDS011;34646;47.964;7.982;2022-07-29T18:31:52;1.67;;;0.90;;
47367;SDS011;34646;47.964;7.982;2022-07-29T18:37:53;2.15;;;0.95;;
47367;SDS011;34646;47.964;7.982;2022-07-29T18:49:55;3.10;;;1.10;;
47367;SDS011;34646;47.964;7.982;2022-07-29T18:55:55;1.70;;;1.23;;
47367;SDS011;34646;47.964;7.982;2022-07-29T19:01:56;4.57;;;1.40;;
47367;SDS011;34646;47.964;7.982;2022-07-29T19:07:57;1.80;;;1.00;;
47367;SDS011;34646;47.964;7.982;2022-07-29T19:13:58;1.83;;;1.10;;
47367;SDS011;34646;47.964;7.982;2022-07-29T19:19:58;1.80;;;1.30;;
47367;SDS011;34646;47.964;7.982;2022-07-29T19:25:59;1.83;;;1.00;;
47367;SDS011;34646;47.964;7.982;2022-07-29T19:32:00;1.87;;;0.90;;
47367;SDS011;34646;47.964;7.982;2022-07-29T19:38:07;2.28;;;1.27;;
47367;SDS011;34646;47.964;7.982;2022-07-29T19:44:08;4.13;;;1.27;;
47367;SDS011;34646;47.964;7.982;2022-07-29T19:50:10;4.28;;;1.48;;
47367;SDS011;34646;47.964;7.982;2022-07-29T19:56:11;2.53;;;1.40;;
47367;SDS011;34646;47.964;7.982;2022-07-29T20:02:11;1.63;;;1.20;;
47367;SDS011;34646;47.964;7.982;2022-07-29T20:08:12;2.77;;;1.13;;
47367;SDS011;34646;47.964;7.982;2022-07-29T20:14:13;1.50;;;1.00;;
47367;SDS011;34646;47.964;7.982;2022-07-29T20:20:13;2.13;;;1.10;;
47367;SDS011;34646;47.964;7.982;2022-07-29T20:26:14;3.00;;;1.40;;
47367;SDS011;34646;47.964;7.982;2022-07-29T20:32:16;6.30;;;1.20;;
47367;SDS011;34646;47.964;7.982;2022-07-29T20:38:16;2.07;;;1.20;;
47367;SDS011;34646;47.964;7.982;2022-07-29T20:44:17;2.03;;;0.87;;
47367;SDS011;34646;47.964;7.982;2022-07-29T20:56:21;2.88;;;0.93;;
47367;SDS011;34646;47.964;7.982;2022-07-29T21:02:22;3.47;;;1.00;;
47367;SDS011;34646;47.964;7.982;2022-07-29T21:08:23;2.20;;;1.10;;
47367;SDS011;34646;47.964;7.982;2022-07-29T21:14:24;1.23;;;0.75;;
47367;SDS011;34646;47.964;7.982;2022-07-29T21:20:34;3.70;;;1.10;;
47367;SDS011;34646;47.964;7.982;2022-07-29T21:26:35;3.10;;;1.00;;
47367;SDS011;34646;47.964;7.982;2022-07-29T21:32:35;3.63;;;1.03;;
47367;SDS011;34646;47.964;7.982;2022-07-29T21:38:36;2.93;;;1.37;;
47367;SDS011;34646;47.964;7.982;2022-07-29T21:44:37;1.83;;;1.10;;
47367;SDS011;34646;47.964;7.982;2022-07-29T21:50:40;2.58;;;1.08;;
47367;SDS011;34646;47.964;7.982;2022-07-29T21:56:40;2.43;;;1.20;;
47367;SDS011;34646;47.964;7.982;2022-07-29T22:02:41;2.10;;;0.93;;
47367;SDS011;34646;47.964;7.982;2022-07-29T22:08:42;1.58;;;1.00;;
47367;SDS011;34646;47.964;7.982;2022-07-29T22:14:44;1.50;;;0.90;;
47367;SDS011;34646;47.964;7.982;2022-07-29T22:20:45;1.77;;;1.33;;
47367;SDS011;34646;47.964;7.982;2022-07-29T22:26:45;2.17;;;1.10;;
47367;SDS011;34646;47.964;7.982;2022-07-29T22:32:46;4.53;;;0.90;;
47367;SDS011;34646;47.964;7.982;2022-07-29T22:38:48;2.30;;;1.10;;
47367;SDS011;34646;47.964;7.982;2022-07-29T22:44:49;3.23;;;0.87;;
47367;SDS011;34646;47.964;7.982;2022-07-29T22:50:49;3.20;;;1.03;;
47367;SDS011;34646;47.964;7.982;2022-07-29T22:56:50;1.63;;;0.93;;
47367;SDS011;34646;47.964;7.982;2022-07-29T23:02:51;1.80;;;0.90;;
47367;SDS011;34646;47.964;7.982;2022-07-29T23:08:52;2.93;;;1.20;;
47367;SDS011;34646;47.964;7.982;2022-07-29T23:14:52;2.30;;;1.00;;
47367;SDS011;34646;47.964;7.982;2022-07-29T23:20:53;2.87;;;0.93;;
47367;SDS011;34646;47.964;7.982;2022-07-29T23:26:53;1.77;;;0.93;;
47367;SDS011;34646;47.964;7.982;2022-07-29T23:32:54;2.03;;;0.93;;
47367;SDS011;34646;47.964;7.982;2022-07-29T23:38:55;5.50;;;1.07;;
47367;SDS011;34646;47.964;7.982;2022-07-29T23:44:56;1.90;;;0.85;;
47367;SDS011;34646;47.964;7.982;2022-07-29T23:50:57;2.17;;;0.90;;
47367;SDS011;34646;47.964;7.982;2022-07-29T23:56:59;2.60;;;1.25;;
